sensor_id;sensor_type;location;lat;lon;timestamp;temperature;humidity
65044;DHT22;51617;48.158;16.464;2022-10-30T00:01:00;14.00;99.90
65044;DHT22;51617;48.158;16.464;2022-10-30T00:03:25;14.00;99.90
65044;DHT22;51617;48.158;16.464;2022-10-30T00:05:51;14.00;99.90
65044;DHT22;51617;48.158;16.464;2022-10-30T00:08:17;13.90;99.90
65044;DHT22;51617;48.158;16.464;2022-10-30T00:10:43;13.90;99.90
65044;DHT22;51617;48.158;16.464;2022-10-30T00:13:09;13.90;99.90
65044;DHT22;51617;48.158;16.464;2022-10-30T00:15:35;13.90;99.90
65044;DHT22;51617;48.158;16.464;2022-10-30T00:18:00;14.00;99.90
65044;DHT22;51617;48.158;16.464;2022-10-30T00:20:28;14.00;99.90
65044;DHT22;51617;48.158;16.464;2022-10-30T00:22:54;14.00;99.90
65044;DHT22;51617;48.158;16.464;2022-10-30T00:25:19;14.00;99.90
65044;DHT22;51617;48.158;16.464;2022-10-30T00:27:45;13.90;99.90
65044;DHT22;51617;48.158;16.464;2022-10-30T00:30:10;13.90;99.90
65044;DHT22;51617;48.158;16.464;2022-10-30T00:32:36;13.90;99.90
65044;DHT22;51617;48.158;16.464;2022-10-30T00:35:01;13.90;99.90
65044;DHT22;51617;48.158;16.464;2022-10-30T00:37:27;13.90;99.90
65044;DHT22;51617;48.158;16.464;2022-10-30T00:39:52;13.80;99.90
65044;DHT22;51617;48.158;16.464;2022-10-30T00:42:18;13.80;99.90
65044;DHT22;51617;48.158;16.464;2022-10-30T00:44:45;13.70;99.90
65044;DHT22;51617;48.158;16.464;2022-10-30T00:49:48;13.70;99.90
65044;DHT22;51617;48.158;16.464;2022-10-30T00:52:15;13.60;99.90
65044;DHT22;51617;48.158;16.464;2022-10-30T00:54:40;13.60;99.90
65044;DHT22;51617;48.158;16.464;2022-10-30T00:57:06;13.70;99.90
65044;DHT22;51617;48.158;16.464;2022-10-30T00:59:32;13.60;99.90
65044;DHT22;51617;48.158;16.464;2022-10-30T01:02:00;13.60;99.90
65044;DHT22;51617;48.158;16.464;2022-10-30T01:04:26;13.60;99.90
65044;DHT22;51617;48.158;16.464;2022-10-30T01:06:52;13.70;99.90
65044;DHT22;51617;48.158;16.464;2022-10-30T01:09:18;13.60;99.90
65044;DHT22;51617;48.158;16.464;2022-10-30T01:11:44;13.60;99.90
65044;DHT22;51617;48.158;16.464;2022-10-30T01:14:09;13.60;99.90
65044;DHT22;51617;48.158;16.464;2022-10-30T01:26:51;13.50;99.90
65044;DHT22;51617;48.158;16.464;2022-10-30T01:34:42;13.50;99.90
65044;DHT22;51617;48.158;16.464;2022-10-30T01:37:53;13.50;99.90
65044;DHT22;51617;48.158;16.464;2022-10-30T01:40:07;13.50;99.90
65044;DHT22;51617;48.158;16.464;2022-10-30T01:45:02;13.50;99.90
65044;DHT22;51617;48.158;16.464;2022-10-30T01:47:31;13.50;99.90
65044;DHT22;51617;48.158;16.464;2022-10-30T01:52:34;13.50;99.90
65044;DHT22;51617;48.158;16.464;2022-10-30T01:57:47;13.50;99.90
65044;DHT22;51617;48.158;16.464;2022-10-30T02:00:14;13.50;99.90
65044;DHT22;51617;48.158;16.464;2022-10-30T02:02:40;13.60;99.90
65044;DHT22;51617;48.158;16.464;2022-10-30T02:05:06;13.50;99.90
65044;DHT22;51617;48.158;16.464;2022-10-30T02:07:33;13.60;99.90
65044;DHT22;51617;48.158;16.464;2022-10-30T02:09:59;13.60;99.90
65044;DHT22;51617;48.158;16.464;2022-10-30T02:12:25;13.60;99.90
65044;DHT22;51617;48.158;16.464;2022-10-30T02:14:52;13.70;99.90
65044;DHT22;51617;48.158;16.464;2022-10-30T02:17:19;13.70;99.90
65044;DHT22;51617;48.158;16.464;2022-10-30T02:19:45;13.70;99.90
65044;DHT22;51617;48.158;16.464;2022-10-30T02:22:10;13.60;99.90
65044;DHT22;51617;48.158;16.464;2022-10-30T02:24:36;13.50;99.90
65044;DHT22;51617;48.158;16.464;2022-10-30T02:27:02;13.50;99.90
65044;DHT22;51617;48.158;16.464;2022-10-30T02:29:27;13.60;99.90
65044;DHT22;51617;48.158;16.464;2022-10-30T02:31:53;13.60;99.90
65044;DHT22;51617;48.158;16.464;2022-10-30T02:34:19;13.50;99.90
65044;DHT22;51617;48.158;16.464;2022-10-30T02:36:44;13.60;99.90
65044;DHT22;51617;48.158;16.464;2022-10-30T02:39:11;13.50;99.90
65044;DHT22;51617;48.158;16.464;2022-10-30T02:41:36;13.60;99.90
65044;DHT22;51617;48.158;16.464;2022-10-30T02:44:02;13.60;99.90
65044;DHT22;51617;48.158;16.464;2022-10-30T02:46:28;13.70;99.90
65044;DHT22;51617;48.158;16.464;2022-10-30T02:48:53;13.70;99.90
65044;DHT22;51617;48.158;16.464;2022-10-30T02:51:19;13.70;99.90
65044;DHT22;51617;48.158;16.464;2022-10-30T02:53:44;13.70;99.90
65044;DHT22;51617;48.158;16.464;2022-10-30T02:56:12;13.70;99.90
65044;DHT22;51617;48.158;16.464;2022-10-30T02:58:38;13.60;99.90
65044;DHT22;51617;48.158;16.464;2022-10-30T03:01:04;13.60;99.90
65044;DHT22;51617;48.158;16.464;2022-10-30T03:03:30;13.60;99.90
65044;DHT22;51617;48.158;16.464;2022-10-30T03:05:58;13.60;99.90
65044;DHT22;51617;48.158;16.464;2022-10-30T03:08:24;13.70;99.90
65044;DHT22;51617;48.158;16.464;2022-10-30T03:10:49;13.70;99.90
65044;DHT22;51617;48.158;16.464;2022-10-30T03:13:15;13.70;99.90
65044;DHT22;51617;48.158;16.464;2022-10-30T03:15:40;13.80;99.90
65044;DHT22;51617;48.158;16.464;2022-10-30T03:18:06;13.70;99.90
65044;DHT22;51617;48.158;16.464;2022-10-30T03:20:31;13.70;99.90
65044;DHT22;51617;48.158;16.464;2022-10-30T03:22:57;13.70;99.90
65044;DHT22;51617;48.158;16.464;2022-10-30T03:25:22;13.70;99.90
65044;DHT22;51617;48.158;16.464;2022-10-30T03:27:48;13.70;99.90
65044;DHT22;51617;48.158;16.464;2022-10-30T03:30:14;13.70;99.90
65044;DHT22;51617;48.158;16.464;2022-10-30T03:32:39;13.70;99.90
65044;DHT22;51617;48.158;16.464;2022-10-30T03:35:05;13.70;99.90
65044;DHT22;51617;48.158;16.464;2022-10-30T03:37:30;13.70;99.90
65044;DHT22;51617;48.158;16.464;2022-10-30T03:39:56;13.70;99.90
65044;DHT22;51617;48.158;16.464;2022-10-30T03:42:21;13.70;99.90
65044;DHT22;51617;48.158;16.464;2022-10-30T03:44:47;13.60;99.90
65044;DHT22;51617;48.158;16.464;2022-10-30T03:47:12;13.60;99.90
65044;DHT22;51617;48.158;16.464;2022-10-30T03:49:38;13.60;99.90
65044;DHT22;51617;48.158;16.464;2022-10-30T03:52:03;13.70;99.90
65044;DHT22;51617;48.158;16.464;2022-10-30T03:54:29;13.80;99.90
65044;DHT22;51617;48.158;16.464;2022-10-30T03:56:54;13.80;99.90
65044;DHT22;51617;48.158;16.464;2022-10-30T03:59:20;13.80;99.90
65044;DHT22;51617;48.158;16.464;2022-10-30T04:01:45;13.70;99.90
65044;DHT22;51617;48.158;16.464;2022-10-30T04:04:11;13.70;99.90
65044;DHT22;51617;48.158;16.464;2022-10-30T04:06:36;13.60;99.90
65044;DHT22;51617;48.158;16.464;2022-10-30T04:09:02;13.60;99.90
65044;DHT22;51617;48.158;16.464;2022-10-30T04:11:27;13.60;99.90
65044;DHT22;51617;48.158;16.464;2022-10-30T04:13:53;13.60;99.90
65044;DHT22;51617;48.158;16.464;2022-10-30T04:16:18;13.70;99.90
65044;DHT22;51617;48.158;16.464;2022-10-30T04:18:44;13.70;99.90
65044;DHT22;51617;48.158;16.464;2022-10-30T04:21:09;13.70;99.90
65044;DHT22;51617;48.158;16.464;2022-10-30T04:23:35;13.60;99.90
65044;DHT22;51617;48.158;16.464;2022-10-30T04:26:00;13.60;99.90
65044;DHT22;51617;48.158;16.464;2022-10-30T04:28:26;13.60;99.90
65044;DHT22;51617;48.158;16.464;2022-10-30T04:30:52;13.60;99.90
65044;DHT22;51617;48.158;16.464;2022-10-30T04:33:17;13.60;99.90
65044;DHT22;51617;48.158;16.464;2022-10-30T04:35:43;13.70;99.90
65044;DHT22;51617;48.158;16.464;2022-10-30T04:38:09;13.70;99.90
65044;DHT22;51617;48.158;16.464;2022-10-30T04:40:36;13.70;99.90
65044;DHT22;51617;48.158;16.464;2022-10-30T04:43:02;13.70;99.90
65044;DHT22;51617;48.158;16.464;2022-10-30T04:45:27;13.70;99.90
65044;DHT22;51617;48.158;16.464;2022-10-30T04:47:58;13.70;99.90
65044;DHT22;51617;48.158;16.464;2022-10-30T04:50:24;13.70;99.90
65044;DHT22;51617;48.158;16.464;2022-10-30T04:52:56;13.70;99.90
65044;DHT22;51617;48.158;16.464;2022-10-30T04:55:22;13.70;99.90
65044;DHT22;51617;48.158;16.464;2022-10-30T04:57:47;13.70;99.90
65044;DHT22;51617;48.158;16.464;2022-10-30T05:00:13;13.70;99.90
65044;DHT22;51617;48.158;16.464;2022-10-30T05:02:39;13.70;99.90
65044;DHT22;51617;48.158;16.464;2022-10-30T05:05:04;13.70;99.90
65044;DHT22;51617;48.158;16.464;2022-10-30T05:07:30;13.80;99.90
65044;DHT22;51617;48.158;16.464;2022-10-30T05:09:55;13.70;99.90
65044;DHT22;51617;48.158;16.464;2022-10-30T05:12:21;13.70;99.90
65044;DHT22;51617;48.158;16.464;2022-10-30T05:14:46;13.70;99.90
65044;DHT22;51617;48.158;16.464;2022-10-30T05:17:12;13.60;99.90
65044;DHT22;51617;48.158;16.464;2022-10-30T05:19:38;13.60;99.90
65044;DHT22;51617;48.158;16.464;2022-10-30T05:22:03;13.50;99.90
65044;DHT22;51617;48.158;16.464;2022-10-30T05:24:29;13.50;99.90
65044;DHT22;51617;48.158;16.464;2022-10-30T05:26:54;13.50;99.90
65044;DHT22;51617;48.158;16.464;2022-10-30T05:29:20;13.50;99.90
65044;DHT22;51617;48.158;16.464;2022-10-30T05:31:45;13.50;99.90
65044;DHT22;51617;48.158;16.464;2022-10-30T05:34:11;13.60;99.90
65044;DHT22;51617;48.158;16.464;2022-10-30T05:36:36;13.60;99.90
65044;DHT22;51617;48.158;16.464;2022-10-30T05:39:02;13.70;99.90
65044;DHT22;51617;48.158;16.464;2022-10-30T05:41:28;13.70;99.90
65044;DHT22;51617;48.158;16.464;2022-10-30T05:43:53;13.80;99.90
65044;DHT22;51617;48.158;16.464;2022-10-30T05:46:19;13.80;99.90
65044;DHT22;51617;48.158;16.464;2022-10-30T05:48:44;13.70;99.90
65044;DHT22;51617;48.158;16.464;2022-10-30T05:51:10;13.70;99.90
65044;DHT22;51617;48.158;16.464;2022-10-30T05:53:35;13.80;99.90
65044;DHT22;51617;48.158;16.464;2022-10-30T05:56:01;13.70;99.90
65044;DHT22;51617;48.158;16.464;2022-10-30T05:58:26;13.70;99.90
65044;DHT22;51617;48.158;16.464;2022-10-30T06:00:52;13.60;99.90
65044;DHT22;51617;48.158;16.464;2022-10-30T06:03:18;13.60;99.90
65044;DHT22;51617;48.158;16.464;2022-10-30T06:05:44;13.60;99.90
65044;DHT22;51617;48.158;16.464;2022-10-30T06:08:09;13.60;99.90
65044;DHT22;51617;48.158;16.464;2022-10-30T06:10:35;13.70;99.90
65044;DHT22;51617;48.158;16.464;2022-10-30T06:13:03;13.80;99.90
65044;DHT22;51617;48.158;16.464;2022-10-30T06:15:28;13.80;99.90
65044;DHT22;51617;48.158;16.464;2022-10-30T06:17:54;13.80;99.90
65044;DHT22;51617;48.158;16.464;2022-10-30T06:20:21;13.80;99.90
65044;DHT22;51617;48.158;16.464;2022-10-30T06:23:00;13.70;99.90
65044;DHT22;51617;48.158;16.464;2022-10-30T06:25:26;13.80;99.90
65044;DHT22;51617;48.158;16.464;2022-10-30T06:27:51;13.80;99.90
65044;DHT22;51617;48.158;16.464;2022-10-30T06:30:17;13.80;99.90
65044;DHT22;51617;48.158;16.464;2022-10-30T06:32:43;13.80;99.90
65044;DHT22;51617;48.158;16.464;2022-10-30T06:35:08;13.70;99.90
65044;DHT22;51617;48.158;16.464;2022-10-30T06:37:34;13.60;99.90
65044;DHT22;51617;48.158;16.464;2022-10-30T06:39:59;13.60;99.90
65044;DHT22;51617;48.158;16.464;2022-10-30T06:42:25;13.70;99.90
65044;DHT22;51617;48.158;16.464;2022-10-30T06:44:51;13.70;99.90
65044;DHT22;51617;48.158;16.464;2022-10-30T06:47:16;13.70;99.90
65044;DHT22;51617;48.158;16.464;2022-10-30T06:49:42;13.80;99.90
65044;DHT22;51617;48.158;16.464;2022-10-30T06:52:07;13.80;99.90
65044;DHT22;51617;48.158;16.464;2022-10-30T06:54:33;13.90;99.90
65044;DHT22;51617;48.158;16.464;2022-10-30T06:56:58;13.90;99.90
65044;DHT22;51617;48.158;16.464;2022-10-30T06:59:24;13.90;99.90
65044;DHT22;51617;48.158;16.464;2022-10-30T07:01:50;13.90;99.90
65044;DHT22;51617;48.158;16.464;2022-10-30T07:04:16;13.90;99.90
65044;DHT22;51617;48.158;16.464;2022-10-30T07:06:41;13.80;99.90
65044;DHT22;51617;48.158;16.464;2022-10-30T07:09:07;13.80;99.90
65044;DHT22;51617;48.158;16.464;2022-10-30T07:11:32;13.70;99.90
65044;DHT22;51617;48.158;16.464;2022-10-30T07:13:58;13.70;99.90
65044;DHT22;51617;48.158;16.464;2022-10-30T07:16:23;13.70;99.90
65044;DHT22;51617;48.158;16.464;2022-10-30T07:18:49;13.70;99.90
65044;DHT22;51617;48.158;16.464;2022-10-30T07:21:15;13.70;99.90
65044;DHT22;51617;48.158;16.464;2022-10-30T07:23:41;13.70;99.90
65044;DHT22;51617;48.158;16.464;2022-10-30T07:26:06;13.70;99.90
65044;DHT22;51617;48.158;16.464;2022-10-30T07:28:32;13.70;99.90
65044;DHT22;51617;48.158;16.464;2022-10-30T07:30:57;13.60;99.90
65044;DHT22;51617;48.158;16.464;2022-10-30T07:33:23;13.60;99.90
65044;DHT22;51617;48.158;16.464;2022-10-30T07:35:49;13.60;99.90
65044;DHT22;51617;48.158;16.464;2022-10-30T07:38:14;13.60;99.90
65044;DHT22;51617;48.158;16.464;2022-10-30T07:40:41;13.70;99.90
65044;DHT22;51617;48.158;16.464;2022-10-30T07:43:07;13.70;99.90
65044;DHT22;51617;48.158;16.464;2022-10-30T07:45:34;13.70;99.90
65044;DHT22;51617;48.158;16.464;2022-10-30T07:48:00;13.70;99.90
65044;DHT22;51617;48.158;16.464;2022-10-30T07:50:25;13.70;99.90
65044;DHT22;51617;48.158;16.464;2022-10-30T07:52:51;13.70;99.90
65044;DHT22;51617;48.158;16.464;2022-10-30T07:55:17;13.70;99.90
65044;DHT22;51617;48.158;16.464;2022-10-30T07:57:42;13.70;99.90
65044;DHT22;51617;48.158;16.464;2022-10-30T08:00:11;13.60;99.90
65044;DHT22;51617;48.158;16.464;2022-10-30T08:02:37;13.60;99.90
65044;DHT22;51617;48.158;16.464;2022-10-30T08:05:03;13.60;99.90
65044;DHT22;51617;48.158;16.464;2022-10-30T08:07:32;13.70;99.90
65044;DHT22;51617;48.158;16.464;2022-10-30T08:09:58;13.70;99.90
65044;DHT22;51617;48.158;16.464;2022-10-30T08:12:27;13.70;99.90
65044;DHT22;51617;48.158;16.464;2022-10-30T08:14:52;13.80;99.90
65044;DHT22;51617;48.158;16.464;2022-10-30T08:17:18;13.80;99.90
65044;DHT22;51617;48.158;16.464;2022-10-30T08:19:44;13.90;99.90
65044;DHT22;51617;48.158;16.464;2022-10-30T08:22:10;14.00;99.90
65044;DHT22;51617;48.158;16.464;2022-10-30T08:24:35;14.10;99.90
65044;DHT22;51617;48.158;16.464;2022-10-30T08:27:01;14.10;99.90
65044;DHT22;51617;48.158;16.464;2022-10-30T08:29:26;14.10;99.90
65044;DHT22;51617;48.158;16.464;2022-10-30T08:31:52;14.10;99.90
65044;DHT22;51617;48.158;16.464;2022-10-30T08:34:17;14.00;99.90
65044;DHT22;51617;48.158;16.464;2022-10-30T08:36:43;14.00;99.90
65044;DHT22;51617;48.158;16.464;2022-10-30T08:39:09;14.00;99.90
65044;DHT22;51617;48.158;16.464;2022-10-30T08:41:34;14.00;99.90
65044;DHT22;51617;48.158;16.464;2022-10-30T08:44:00;14.00;99.90
65044;DHT22;51617;48.158;16.464;2022-10-30T08:46:25;14.00;99.90
65044;DHT22;51617;48.158;16.464;2022-10-30T08:48:51;14.00;99.90
65044;DHT22;51617;48.158;16.464;2022-10-30T08:51:16;14.00;99.90
65044;DHT22;51617;48.158;16.464;2022-10-30T08:53:42;14.10;99.90
65044;DHT22;51617;48.158;16.464;2022-10-30T08:56:07;14.10;99.90
65044;DHT22;51617;48.158;16.464;2022-10-30T08:58:33;14.10;99.90
65044;DHT22;51617;48.158;16.464;2022-10-30T09:00:58;14.10;99.90
65044;DHT22;51617;48.158;16.464;2022-10-30T09:03:24;14.20;99.90
65044;DHT22;51617;48.158;16.464;2022-10-30T09:05:49;14.20;99.90
65044;DHT22;51617;48.158;16.464;2022-10-30T09:08:15;14.20;99.90
65044;DHT22;51617;48.158;16.464;2022-10-30T09:10:40;14.20;99.90
65044;DHT22;51617;48.158;16.464;2022-10-30T09:13:06;14.20;99.90
65044;DHT22;51617;48.158;16.464;2022-10-30T09:15:31;14.20;99.90
65044;DHT22;51617;48.158;16.464;2022-10-30T09:17:58;14.20;99.90
65044;DHT22;51617;48.158;16.464;2022-10-30T09:20:24;14.20;99.90
65044;DHT22;51617;48.158;16.464;2022-10-30T09:22:50;14.10;99.90
65044;DHT22;51617;48.158;16.464;2022-10-30T09:25:15;14.10;99.90
65044;DHT22;51617;48.158;16.464;2022-10-30T09:27:41;14.10;99.90
65044;DHT22;51617;48.158;16.464;2022-10-30T09:30:06;14.10;99.90
65044;DHT22;51617;48.158;16.464;2022-10-30T09:32:32;14.20;99.90
65044;DHT22;51617;48.158;16.464;2022-10-30T09:34:58;14.30;99.90
65044;DHT22;51617;48.158;16.464;2022-10-30T09:37:23;14.40;99.90
65044;DHT22;51617;48.158;16.464;2022-10-30T09:39:49;14.40;99.90
65044;DHT22;51617;48.158;16.464;2022-10-30T09:42:57;14.50;99.90
65044;DHT22;51617;48.158;16.464;2022-10-30T09:55:28;14.40;99.90
65044;DHT22;51617;48.158;16.464;2022-10-30T10:00:53;14.40;99.90
65044;DHT22;51617;48.158;16.464;2022-10-30T10:05:54;14.40;99.90
65044;DHT22;51617;48.158;16.464;2022-10-30T10:08:32;14.50;99.90
65044;DHT22;51617;48.158;16.464;2022-10-30T10:11:00;14.50;99.90
65044;DHT22;51617;48.158;16.464;2022-10-30T10:16:01;14.50;99.90
65044;DHT22;51617;48.158;16.464;2022-10-30T10:18:32;14.60;99.90
65044;DHT22;51617;48.158;16.464;2022-10-30T10:21:00;14.50;99.90
65044;DHT22;51617;48.158;16.464;2022-10-30T10:25:57;14.60;99.90
65044;DHT22;51617;48.158;16.464;2022-10-30T10:31:12;14.60;99.90
65044;DHT22;51617;48.158;16.464;2022-10-30T10:41:57;14.70;99.90
65044;DHT22;51617;48.158;16.464;2022-10-30T10:52:22;14.90;99.90
65044;DHT22;51617;48.158;16.464;2022-10-30T10:54:51;14.80;99.90
65044;DHT22;51617;48.158;16.464;2022-10-30T10:57:36;14.80;99.90
65044;DHT22;51617;48.158;16.464;2022-10-30T11:00:19;14.80;99.90
65044;DHT22;51617;48.158;16.464;2022-10-30T11:05:25;14.90;99.90
65044;DHT22;51617;48.158;16.464;2022-10-30T11:07:51;14.90;99.90
65044;DHT22;51617;48.158;16.464;2022-10-30T11:10:18;14.90;99.90
65044;DHT22;51617;48.158;16.464;2022-10-30T11:12:45;15.00;99.90
65044;DHT22;51617;48.158;16.464;2022-10-30T11:15:22;15.10;99.90
65044;DHT22;51617;48.158;16.464;2022-10-30T11:20:27;15.20;99.90
65044;DHT22;51617;48.158;16.464;2022-10-30T11:22:53;15.30;99.90
65044;DHT22;51617;48.158;16.464;2022-10-30T11:25:23;15.30;99.90
65044;DHT22;51617;48.158;16.464;2022-10-30T11:27:52;15.20;99.90
65044;DHT22;51617;48.158;16.464;2022-10-30T11:30:19;15.10;99.90
65044;DHT22;51617;48.158;16.464;2022-10-30T11:32:45;15.20;99.90
65044;DHT22;51617;48.158;16.464;2022-10-30T11:35:12;15.20;99.90
65044;DHT22;51617;48.158;16.464;2022-10-30T11:37:39;15.10;99.90
65044;DHT22;51617;48.158;16.464;2022-10-30T11:42:31;15.10;99.90
65044;DHT22;51617;48.158;16.464;2022-10-30T11:44:56;15.20;99.90
65044;DHT22;51617;48.158;16.464;2022-10-30T11:47:33;15.00;99.90
65044;DHT22;51617;48.158;16.464;2022-10-30T11:50:00;14.90;99.90
65044;DHT22;51617;48.158;16.464;2022-10-30T11:52:26;15.10;99.90
65044;DHT22;51617;48.158;16.464;2022-10-30T11:54:56;15.10;99.90
65044;DHT22;51617;48.158;16.464;2022-10-30T11:57:33;15.10;99.90
65044;DHT22;51617;48.158;16.464;2022-10-30T11:59:59;15.00;99.90
65044;DHT22;51617;48.158;16.464;2022-10-30T12:02:28;15.00;99.90
65044;DHT22;51617;48.158;16.464;2022-10-30T12:04:59;15.00;99.90
65044;DHT22;51617;48.158;16.464;2022-10-30T12:07:26;15.00;99.90
65044;DHT22;51617;48.158;16.464;2022-10-30T12:09:54;15.10;99.90
65044;DHT22;51617;48.158;16.464;2022-10-30T12:12:31;15.10;99.90
65044;DHT22;51617;48.158;16.464;2022-10-30T12:17:32;15.00;99.90
65044;DHT22;51617;48.158;16.464;2022-10-30T12:19:58;14.90;99.90
65044;DHT22;51617;48.158;16.464;2022-10-30T12:22:28;15.00;99.90
65044;DHT22;51617;48.158;16.464;2022-10-30T12:24:55;15.00;99.90
65044;DHT22;51617;48.158;16.464;2022-10-30T12:27:21;15.00;99.90
65044;DHT22;51617;48.158;16.464;2022-10-30T12:32:17;15.00;99.90
65044;DHT22;51617;48.158;16.464;2022-10-30T12:35:03;14.90;99.90
65044;DHT22;51617;48.158;16.464;2022-10-30T12:37:37;14.90;99.90
65044;DHT22;51617;48.158;16.464;2022-10-30T12:42:31;14.90;99.90
65044;DHT22;51617;48.158;16.464;2022-10-30T12:45:04;14.90;99.90
65044;DHT22;51617;48.158;16.464;2022-10-30T12:52:50;15.00;99.90
65044;DHT22;51617;48.158;16.464;2022-10-30T12:56:01;15.10;99.90
65044;DHT22;51617;48.158;16.464;2022-10-30T13:01:05;15.00;99.90
65044;DHT22;51617;48.158;16.464;2022-10-30T13:03:34;15.10;99.90
65044;DHT22;51617;48.158;16.464;2022-10-30T13:06:06;15.10;99.90
65044;DHT22;51617;48.158;16.464;2022-10-30T13:08:38;15.10;99.90
65044;DHT22;51617;48.158;16.464;2022-10-30T13:13:48;15.20;99.90
65044;DHT22;51617;48.158;16.464;2022-10-30T13:16:15;15.00;99.90
65044;DHT22;51617;48.158;16.464;2022-10-30T13:18:42;15.10;99.90
65044;DHT22;51617;48.158;16.464;2022-10-30T13:23:39;15.30;99.90
65044;DHT22;51617;48.158;16.464;2022-10-30T13:26:16;15.40;99.90
65044;DHT22;51617;48.158;16.464;2022-10-30T13:29:04;15.40;99.90
65044;DHT22;51617;48.158;16.464;2022-10-30T13:39:31;15.30;99.90
65044;DHT22;51617;48.158;16.464;2022-10-30T13:48:06;15.30;99.90
65044;DHT22;51617;48.158;16.464;2022-10-30T13:52:31;15.20;99.90
65044;DHT22;51617;48.158;16.464;2022-10-30T14:02:28;15.30;99.90
65044;DHT22;51617;48.158;16.464;2022-10-30T14:04:58;15.40;99.90
65044;DHT22;51617;48.158;16.464;2022-10-30T14:15:05;15.50;99.90
65044;DHT22;51617;48.158;16.464;2022-10-30T14:17:30;15.40;99.90
65044;DHT22;51617;48.158;16.464;2022-10-30T14:22:31;15.40;99.90
65044;DHT22;51617;48.158;16.464;2022-10-30T14:24:56;15.40;99.90
65044;DHT22;51617;48.158;16.464;2022-10-30T14:27:29;15.50;99.90
65044;DHT22;51617;48.158;16.464;2022-10-30T14:29:55;15.50;99.90
65044;DHT22;51617;48.158;16.464;2022-10-30T14:37:18;15.40;99.90
65044;DHT22;51617;48.158;16.464;2022-10-30T14:40:29;15.40;99.90
65044;DHT22;51617;48.158;16.464;2022-10-30T14:42:52;15.40;99.90
65044;DHT22;51617;48.158;16.464;2022-10-30T14:47:49;15.50;99.90
65044;DHT22;51617;48.158;16.464;2022-10-30T14:57:51;15.30;99.90
65044;DHT22;51617;48.158;16.464;2022-10-30T15:05:35;15.30;99.90
65044;DHT22;51617;48.158;16.464;2022-10-30T15:10:34;15.20;99.90
65044;DHT22;51617;48.158;16.464;2022-10-30T15:15:32;15.20;99.90
65044;DHT22;51617;48.158;16.464;2022-10-30T15:17:58;15.20;99.90
65044;DHT22;51617;48.158;16.464;2022-10-30T15:20:26;15.10;99.90
65044;DHT22;51617;48.158;16.464;2022-10-30T15:22:53;15.20;99.90
65044;DHT22;51617;48.158;16.464;2022-10-30T15:25:21;15.20;99.90
65044;DHT22;51617;48.158;16.464;2022-10-30T15:27:48;15.20;99.90
65044;DHT22;51617;48.158;16.464;2022-10-30T15:30:15;15.20;99.90
65044;DHT22;51617;48.158;16.464;2022-10-30T15:32:41;15.20;99.90
65044;DHT22;51617;48.158;16.464;2022-10-30T15:35:15;15.20;99.90
65044;DHT22;51617;48.158;16.464;2022-10-30T15:37:55;15.10;99.90
65044;DHT22;51617;48.158;16.464;2022-10-30T15:40:20;15.10;99.90
65044;DHT22;51617;48.158;16.464;2022-10-30T15:42:46;15.10;99.90
65044;DHT22;51617;48.158;16.464;2022-10-30T15:45:17;15.00;99.90
65044;DHT22;51617;48.158;16.464;2022-10-30T15:47:44;15.00;99.90
65044;DHT22;51617;48.158;16.464;2022-10-30T15:50:10;15.00;99.90
65044;DHT22;51617;48.158;16.464;2022-10-30T15:52:36;15.00;99.90
65044;DHT22;51617;48.158;16.464;2022-10-30T15:55:05;15.00;99.90
65044;DHT22;51617;48.158;16.464;2022-10-30T15:57:34;14.90;99.90
65044;DHT22;51617;48.158;16.464;2022-10-30T16:00:04;15.00;99.90
65044;DHT22;51617;48.158;16.464;2022-10-30T16:02:32;14.90;99.90
65044;DHT22;51617;48.158;16.464;2022-10-30T16:04:58;14.90;99.90
65044;DHT22;51617;48.158;16.464;2022-10-30T16:07:27;14.90;99.90
65044;DHT22;51617;48.158;16.464;2022-10-30T16:09:57;14.80;99.90
65044;DHT22;51617;48.158;16.464;2022-10-30T16:12:26;14.80;99.90
65044;DHT22;51617;48.158;16.464;2022-10-30T16:14:55;14.70;99.90
65044;DHT22;51617;48.158;16.464;2022-10-30T16:17:21;14.70;99.90
65044;DHT22;51617;48.158;16.464;2022-10-30T16:19:48;14.70;99.90
65044;DHT22;51617;48.158;16.464;2022-10-30T16:22:20;14.70;99.90
65044;DHT22;51617;48.158;16.464;2022-10-30T16:24:47;14.60;99.90
65044;DHT22;51617;48.158;16.464;2022-10-30T16:27:20;14.60;99.90
65044;DHT22;51617;48.158;16.464;2022-10-30T16:29:52;14.60;99.90
65044;DHT22;51617;48.158;16.464;2022-10-30T16:32:20;14.50;99.90
65044;DHT22;51617;48.158;16.464;2022-10-30T16:34:46;14.00;99.90
65044;DHT22;51617;48.158;16.464;2022-10-30T16:37:17;14.40;99.90
65044;DHT22;51617;48.158;16.464;2022-10-30T16:39:43;14.40;99.90
65044;DHT22;51617;48.158;16.464;2022-10-30T16:42:19;14.40;99.90
65044;DHT22;51617;48.158;16.464;2022-10-30T16:44:46;14.30;99.90
65044;DHT22;51617;48.158;16.464;2022-10-30T16:52:14;14.30;99.90
65044;DHT22;51617;48.158;16.464;2022-10-30T16:54:45;14.30;99.90
65044;DHT22;51617;48.158;16.464;2022-10-30T16:57:14;14.30;99.90
65044;DHT22;51617;48.158;16.464;2022-10-30T16:59:44;14.30;99.90
65044;DHT22;51617;48.158;16.464;2022-10-30T17:02:19;14.30;99.90
65044;DHT22;51617;48.158;16.464;2022-10-30T17:04:46;14.30;99.90
65044;DHT22;51617;48.158;16.464;2022-10-30T17:07:14;14.40;99.90
65044;DHT22;51617;48.158;16.464;2022-10-30T17:09:41;14.40;99.90
65044;DHT22;51617;48.158;16.464;2022-10-30T17:14:54;14.50;99.90
65044;DHT22;51617;48.158;16.464;2022-10-30T17:19:46;14.50;99.90
65044;DHT22;51617;48.158;16.464;2022-10-30T17:22:14;14.40;99.90
65044;DHT22;51617;48.158;16.464;2022-10-30T17:24:41;14.40;99.90
65044;DHT22;51617;48.158;16.464;2022-10-30T17:27:21;14.40;99.90
65044;DHT22;51617;48.158;16.464;2022-10-30T17:29:50;14.40;99.90
65044;DHT22;51617;48.158;16.464;2022-10-30T17:34:51;14.50;99.90
65044;DHT22;51617;48.158;16.464;2022-10-30T17:37:18;14.50;99.90
65044;DHT22;51617;48.158;16.464;2022-10-30T17:39:44;14.50;99.90
65044;DHT22;51617;48.158;16.464;2022-10-30T17:42:09;14.50;99.90
65044;DHT22;51617;48.158;16.464;2022-10-30T17:44:35;14.60;99.90
65044;DHT22;51617;48.158;16.464;2022-10-30T17:47:09;14.60;99.90
65044;DHT22;51617;48.158;16.464;2022-10-30T17:49:37;14.50;99.90
65044;DHT22;51617;48.158;16.464;2022-10-30T17:52:03;14.50;99.90
65044;DHT22;51617;48.158;16.464;2022-10-30T17:54:29;14.50;99.90
65044;DHT22;51617;48.158;16.464;2022-10-30T17:56:54;14.50;99.90
65044;DHT22;51617;48.158;16.464;2022-10-30T17:59:21;14.50;99.90
65044;DHT22;51617;48.158;16.464;2022-10-30T18:01:47;14.40;99.90